createdAt,value
2024-04-25T00:00:20.035Z,3.73
2024-04-25T00:01:21.764Z,3.73
2024-04-25T00:02:23.784Z,3.74
2024-04-25T00:03:25.385Z,3.74
2024-04-25T00:04:27.011Z,3.75
2024-04-25T00:05:28.739Z,3.76
2024-04-25T00:06:30.440Z,3.75
2024-04-25T00:07:32.157Z,3.77
2024-04-25T00:08:34.018Z,3.77
2024-04-25T00:09:35.863Z,3.77
2024-04-25T00:10:37.455Z,3.77
2024-04-25T00:11:39.225Z,3.78
2024-04-25T00:12:40.839Z,3.79
2024-04-25T00:13:42.555Z,3.79
2024-04-25T00:14:44.356Z,3.79
2024-04-25T00:15:46.043Z,3.79
2024-04-25T00:16:47.772Z,3.79
2024-04-25T00:17:49.680Z,3.79
2024-04-25T00:18:51.229Z,3.79
2024-04-25T00:19:52.964Z,3.8
2024-04-25T00:20:54.674Z,3.79
2024-04-25T00:21:56.410Z,3.79
2024-04-25T00:22:58.137Z,3.79
2024-04-25T00:23:59.868Z,3.79
2024-04-25T00:25:01.635Z,3.8
2024-04-25T00:26:03.495Z,3.79
2024-04-25T00:27:05.094Z,3.79
2024-04-25T00:28:06.800Z,3.8
2024-04-25T00:29:08.585Z,3.81
2024-04-25T00:30:10.317Z,3.82
2024-04-25T00:31:12.028Z,3.82
2024-04-25T00:32:13.783Z,3.82
2024-04-25T00:33:15.604Z,3.82
2024-04-25T00:34:17.223Z,3.83
2024-04-25T00:35:19.145Z,3.83
2024-04-25T00:36:20.685Z,3.84
2024-04-25T00:37:22.466Z,3.85
2024-04-25T00:38:24.194Z,3.85
2024-04-25T00:39:25.885Z,3.86
2024-04-25T00:40:27.612Z,3.86
2024-04-25T00:41:29.503Z,3.87
2024-04-25T00:42:31.073Z,3.89
2024-04-25T00:43:32.801Z,3.9
2024-04-25T00:44:34.711Z,3.9
2024-04-25T00:45:36.301Z,3.91
2024-04-25T00:46:37.991Z,3.92
2024-04-25T00:47:39.911Z,3.93
2024-04-25T00:48:41.474Z,3.94
2024-04-25T00:49:43.390Z,3.95
2024-04-25T00:50:45.130Z,3.96
2024-04-25T00:51:46.734Z,3.96
2024-04-25T00:52:48.396Z,3.97
2024-04-25T00:53:50.138Z,3.99
2024-04-25T00:54:51.852Z,3.99
2024-04-25T00:55:53.587Z,4
2024-04-25T00:56:55.337Z,4.01
2024-04-25T00:57:57.255Z,4
2024-04-25T00:58:58.832Z,4.02
2024-04-25T01:00:00.532Z,4.02
2024-04-25T01:01:02.297Z,4.02
2024-04-25T01:02:04.020Z,4.02
2024-04-25T01:03:05.855Z,4.02
2024-04-25T01:04:07.570Z,4.03
2024-04-25T01:05:09.211Z,4.03
2024-04-25T01:06:10.918Z,4.03
2024-04-25T01:07:12.667Z,4.02
2024-04-25T01:08:14.420Z,4.02
2024-04-25T01:09:16.144Z,4.01
2024-04-25T01:10:17.834Z,4.01
2024-04-25T01:11:19.811Z,4
2024-04-25T01:12:21.328Z,4
2024-04-25T01:13:23.128Z,4
2024-04-25T01:14:24.820Z,4
2024-04-25T01:15:26.510Z,3.99
2024-04-25T01:16:28.315Z,3.99
2024-04-25T01:17:30.054Z,3.98
2024-04-25T01:18:31.739Z,3.98
2024-04-25T01:19:33.674Z,3.97
2024-04-25T01:20:35.328Z,3.97
2024-04-25T01:21:37.116Z,3.96
2024-04-25T01:22:38.622Z,3.96
2024-04-25T01:23:40.654Z,3.95
2024-04-25T01:24:42.113Z,3.96
2024-04-25T01:25:43.960Z,3.96
2024-04-25T01:26:45.616Z,3.95
2024-04-25T01:27:47.317Z,3.95
2024-04-25T01:28:49.041Z,3.95
2024-04-25T01:29:50.779Z,3.93
2024-04-25T01:30:52.493Z,3.94
2024-04-25T01:31:54.234Z,3.94
2024-04-25T01:32:56.234Z,3.93
2024-04-25T01:33:57.813Z,3.93
2024-04-25T01:34:59.455Z,3.92
2024-04-25T01:36:01.165Z,3.92
2024-04-25T01:37:02.929Z,3.92
2024-04-25T01:38:04.757Z,3.91
2024-04-25T01:39:06.353Z,3.92
2024-04-25T01:40:08.112Z,3.89
2024-04-25T01:41:09.893Z,3.9
2024-04-25T01:42:11.606Z,3.91
2024-04-25T01:43:13.319Z,3.9
2024-04-25T01:44:15.099Z,3.89
2024-04-25T01:45:16.897Z,3.89
2024-04-25T01:46:18.550Z,3.89
2024-04-25T01:47:20.349Z,3.88
2024-04-25T01:48:22.252Z,3.89
2024-04-25T01:49:23.712Z,3.88
2024-04-25T01:50:25.478Z,3.88
2024-04-25T01:51:27.190Z,3.88
2024-04-25T01:52:28.904Z,3.87
2024-04-25T01:53:30.696Z,3.87
2024-04-25T01:54:32.399Z,3.86
2024-04-25T01:55:34.087Z,3.86
2024-04-25T01:56:37.233Z,3.86
2024-04-25T01:57:37.579Z,3.84
2024-04-25T01:58:39.320Z,3.84
2024-04-25T01:59:41.048Z,3.83
2024-04-25T02:00:42.808Z,3.83
2024-04-25T02:01:44.517Z,3.82
2024-04-25T02:02:46.513Z,3.8
2024-04-25T02:03:48.046Z,3.81
2024-04-25T02:04:49.699Z,3.79
2024-04-25T02:05:51.448Z,3.78
2024-04-25T02:06:53.166Z,3.78
2024-04-25T02:07:54.897Z,3.77
2024-04-25T02:08:56.633Z,3.77
2024-04-25T02:09:58.361Z,3.75
2024-04-25T02:11:00.095Z,3.74
2024-04-25T02:12:01.926Z,3.74
2024-04-25T02:13:03.628Z,3.73
2024-04-25T02:14:05.326Z,3.71
2024-04-25T02:15:07.032Z,3.7
2024-04-25T02:16:08.762Z,3.7
2024-04-25T02:17:10.512Z,3.67
2024-04-25T02:18:12.476Z,3.66
2024-04-25T02:19:13.950Z,3.64
2024-04-25T02:20:15.683Z,3.63
2024-04-25T02:21:17.434Z,3.59
2024-04-25T02:22:19.163Z,3.57
2024-04-25T02:23:20.927Z,3.55
2024-04-25T02:24:22.615Z,3.54
2024-04-25T02:25:24.402Z,3.52
2024-04-25T02:26:27.702Z,3.5
2024-04-25T02:27:27.861Z,3.49
2024-04-25T02:28:28.389Z,3.47
2024-04-25T02:29:30.178Z,3.46
2024-04-25T02:30:36.320Z,3.43
2024-04-25T02:31:38.818Z,3.41
2024-04-25T02:32:40.687Z,3.41
2024-04-25T02:33:46.443Z,3.38
2024-04-25T02:34:50.157Z,3.38
2024-04-25T02:35:55.227Z,3.35
2024-04-25T02:36:57.702Z,3.35
2024-04-25T02:38:01.378Z,3.33
2024-04-25T02:39:07.614Z,3.31
2024-04-25T02:40:08.535Z,3.3
2024-04-25T02:41:09.761Z,3.29
2024-04-25T02:42:11.513Z,3.28
2024-04-25T02:43:13.215Z,3.27
2024-04-25T02:44:14.963Z,3.27
2024-04-25T02:45:16.645Z,3.26
2024-04-25T02:46:18.371Z,3.25
2024-04-25T02:47:21.674Z,3.24
2024-04-25T02:48:22.045Z,3.23
2024-04-25T02:49:23.685Z,3.23
2024-04-25T02:50:25.412Z,3.22
2024-04-25T02:51:27.098Z,3.22
2024-04-25T02:52:28.831Z,3.22
2024-04-25T02:53:40.656Z,3.21
2024-04-25T02:54:47.063Z,3.2
2024-04-25T02:55:49.427Z,3.2
2024-04-25T02:56:51.165Z,3.2
2024-04-25T02:57:52.928Z,3.19
2024-04-25T02:58:54.621Z,3.18
2024-04-25T02:59:56.341Z,3.18
2024-04-25T03:00:58.116Z,3.17
2024-04-25T03:01:59.856Z,3.16
2024-04-25T03:03:01.648Z,3.15
2024-04-25T03:04:03.329Z,3.15
2024-04-25T03:05:04.503Z,3.14
2024-04-25T03:06:10.921Z,3.14
2024-04-25T03:07:13.574Z,3.13
2024-04-25T03:08:15.295Z,3.12
2024-04-25T03:09:19.715Z,3.11
2024-04-25T03:10:23.924Z,3.1
2024-04-25T03:11:25.682Z,3.09
2024-04-25T03:12:28.519Z,3.09
2024-04-25T03:13:29.083Z,3.07
2024-04-25T03:14:30.931Z,3.06
2024-04-25T03:15:33.851Z,3.06
2024-04-25T03:16:34.279Z,3.06
2024-04-25T03:17:36.152Z,3.05
2024-04-25T03:18:38.950Z,3.05
2024-04-25T03:19:44.608Z,3.03
2024-04-25T03:20:51.069Z,3.03
2024-04-25T03:22:13.955Z,3.02
2024-04-25T03:23:15.664Z,3
2024-04-25T03:24:18.980Z,3
2024-04-25T03:25:20.719Z,2.99
2024-04-25T03:26:23.636Z,2.97
2024-04-25T03:27:24.200Z,2.96
2024-04-25T03:28:25.921Z,2.96
2024-04-25T03:29:27.833Z,2.95
2024-04-25T03:30:30.774Z,2.93
2024-04-25T03:31:31.273Z,2.92
2024-04-25T03:32:33.154Z,2.92
2024-04-25T03:33:33.805Z,2.91
2024-04-25T03:34:34.387Z,2.89
2024-04-25T03:35:42.322Z,2.87
2024-04-25T03:37:05.424Z,2.86
2024-04-25T03:38:25.935Z,2.83
2024-04-25T03:39:27.613Z,2.82
2024-04-25T03:40:29.340Z,2.81
2024-04-25T03:41:31.096Z,2.78
2024-04-25T03:42:32.806Z,2.77
2024-04-25T03:43:34.549Z,2.74
2024-04-25T03:44:36.285Z,2.73
2024-04-25T03:45:38.022Z,2.71
2024-04-25T03:46:39.759Z,2.69
2024-04-25T03:47:41.566Z,2.67
2024-04-25T03:48:43.293Z,2.66
2024-04-25T03:49:44.952Z,2.64
2024-04-25T03:50:46.733Z,2.61
2024-04-25T03:51:48.417Z,2.59
2024-04-25T03:52:50.150Z,2.58
2024-04-25T03:53:51.940Z,2.57
2024-04-25T03:54:53.601Z,2.55
2024-04-25T03:55:55.328Z,2.53
2024-04-25T03:56:57.079Z,2.52
2024-04-25T03:57:58.791Z,2.51
2024-04-25T03:59:00.542Z,2.49
2024-04-25T04:00:02.303Z,2.48
2024-04-25T04:01:04.065Z,2.46
2024-04-25T04:02:05.821Z,2.44
2024-04-25T04:03:07.547Z,2.43
2024-04-25T04:04:09.202Z,2.42
2024-04-25T04:05:11.006Z,2.4
2024-04-25T04:06:12.661Z,2.38
2024-04-25T04:07:15.902Z,2.37
2024-04-25T04:08:38.397Z,2.34
2024-04-25T04:09:38.512Z,2.33
2024-04-25T04:10:40.158Z,2.31
2024-04-25T04:11:40.978Z,2.3
2024-04-25T04:12:47.825Z,2.27
2024-04-25T04:13:50.608Z,2.26
2024-04-25T04:14:54.129Z,2.25
2024-04-25T04:15:56.333Z,2.23
2024-04-25T04:17:01.187Z,2.23
2024-04-25T04:18:03.640Z,2.21
2024-04-25T04:19:06.502Z,2.19
2024-04-25T04:20:07.159Z,2.18
2024-04-25T04:21:10.598Z,2.16
2024-04-25T04:22:16.367Z,2.15
2024-04-25T04:23:18.304Z,2.13
2024-04-25T04:24:19.930Z,2.12
2024-04-25T04:25:34.178Z,2.11
2024-04-25T04:26:58.883Z,2.09
2024-04-25T04:28:51.292Z,2.07
2024-04-25T04:30:05.778Z,2.06
2024-04-25T04:31:05.957Z,2.05
2024-04-25T04:32:07.799Z,2.04
2024-04-25T04:33:08.312Z,2.03
2024-04-25T04:34:11.112Z,2.02
2024-04-25T04:35:13.426Z,2.02
2024-04-25T04:36:14.531Z,2
2024-04-25T04:37:16.242Z,2
2024-04-25T04:38:36.880Z,1.98
2024-04-25T04:39:38.301Z,1.98
2024-04-25T04:40:40.018Z,1.97
2024-04-25T04:41:41.815Z,1.96
2024-04-25T04:42:43.494Z,1.95
2024-04-25T04:43:45.194Z,1.94
2024-04-25T04:44:50.275Z,1.95
2024-04-25T04:45:59.245Z,1.96
2024-04-25T04:47:01.121Z,1.95
2024-04-25T04:48:03.451Z,1.96
2024-04-25T04:49:04.189Z,1.96
2024-04-25T04:50:07.462Z,1.96
2024-04-25T04:51:08.893Z,1.96
2024-04-25T04:52:09.315Z,1.97
2024-04-25T04:53:16.270Z,1.97
2024-04-25T04:54:18.979Z,1.98
2024-04-25T04:55:19.677Z,1.99
2024-04-25T04:56:21.426Z,1.99
2024-04-25T04:57:23.319Z,2
2024-04-25T04:58:29.359Z,2.01
2024-04-25T04:59:31.592Z,2.01
2024-04-25T05:00:31.747Z,2.02
2024-04-25T05:01:36.730Z,2.03
2024-04-25T05:02:38.426Z,2.04
2024-04-25T05:03:38.751Z,2.03
2024-04-25T05:04:40.566Z,2.04
2024-04-25T05:05:41.059Z,2.04
2024-04-25T05:06:41.368Z,2.05
2024-04-25T05:07:45.652Z,2.05
2024-04-25T05:08:47.446Z,2.06
2024-04-25T05:09:49.111Z,2.05
2024-04-25T05:10:50.844Z,2.05
2024-04-25T05:11:52.689Z,2.04
2024-04-25T05:12:54.273Z,2.04
2024-04-25T05:13:57.076Z,2.03
2024-04-25T05:14:57.783Z,2.03
2024-04-25T05:16:03.433Z,2.02
2024-04-25T05:17:06.353Z,2.05
2024-04-25T05:18:12.716Z,2.04
2024-04-25T05:19:46.014Z,2.04
2024-04-25T05:21:05.802Z,2.06
2024-04-25T05:22:13.209Z,2.06
2024-04-25T05:23:15.161Z,2.06
2024-04-25T05:24:16.868Z,2.06
2024-04-25T05:25:18.613Z,2.07
2024-04-25T05:26:28.447Z,2.07
2024-04-25T05:27:30.026Z,2.08
2024-04-25T05:28:31.769Z,2.1
2024-04-25T05:29:36.023Z,2.1
2024-04-25T05:30:35.288Z,2.11
2024-04-25T05:31:55.441Z,2.13
2024-04-25T05:33:00.413Z,2.14
2024-04-25T05:34:06.963Z,2.15
2024-04-25T05:35:08.724Z,2.16
2024-04-25T05:36:10.457Z,2.17
2024-04-25T05:37:16.742Z,2.19
2024-04-25T05:38:19.137Z,2.21
2024-04-25T05:39:21.212Z,2.23
2024-04-25T05:40:25.994Z,2.24
2024-04-25T05:41:29.841Z,2.25
2024-04-25T05:42:30.227Z,2.26
2024-04-25T05:43:49.429Z,2.29
2024-04-25T05:44:50.348Z,2.31
2024-04-25T05:46:01.527Z,2.33
2024-04-25T05:47:02.746Z,2.35
2024-04-25T05:48:04.668Z,2.37
2024-04-25T05:49:10.342Z,2.4
2024-04-25T05:50:13.178Z,2.43
2024-04-25T05:51:16.873Z,2.46
2024-04-25T05:52:17.380Z,2.48
2024-04-25T05:53:19.117Z,2.52
2024-04-25T05:54:24.009Z,2.55
2024-04-25T05:55:25.746Z,2.59
2024-04-25T05:56:28.770Z,2.64
2024-04-25T05:57:29.191Z,2.71
2024-04-25T05:58:30.906Z,2.78
2024-04-25T05:59:32.688Z,2.87
2024-04-25T06:00:34.361Z,2.99
2024-04-25T06:01:36.115Z,3.1
2024-04-25T06:02:37.961Z,3.2
2024-04-25T06:03:38.319Z,3.32
2024-04-25T06:04:42.648Z,3.46
2024-04-25T06:05:43.147Z,3.59
2024-04-25T06:06:55.108Z,3.74
2024-04-25T06:08:02.847Z,3.91
2024-04-25T06:09:03.676Z,4.07
2024-04-25T06:10:05.376Z,4.16
2024-04-25T06:11:14.816Z,4.21
2024-04-25T06:13:23.434Z,4.46
2024-04-25T06:14:25.228Z,4.57
2024-04-25T06:15:26.882Z,4.7
2024-04-25T06:16:32.767Z,4.82
2024-04-25T06:17:39.651Z,4.93
2024-04-25T06:18:52.796Z,4.95
2024-04-25T06:19:54.345Z,5
2024-04-25T06:20:57.312Z,4.96
2024-04-25T06:22:08.115Z,4.9
2024-04-25T06:23:09.839Z,4.94
2024-04-25T06:24:11.506Z,4.96
2024-04-25T06:25:13.236Z,5.01
2024-04-25T06:26:14.999Z,5.06
2024-04-25T06:27:23.860Z,5.09
2024-04-25T06:28:25.234Z,5.18
2024-04-25T06:29:34.501Z,5.3
2024-04-25T06:30:46.859Z,5.36
2024-04-25T06:31:56.295Z,5.3
2024-04-25T06:33:09.216Z,5.22
2024-04-25T06:34:11.303Z,5.23
2024-04-25T06:35:13.705Z,5.23
2024-04-25T06:36:14.268Z,5.19
2024-04-25T06:37:15.043Z,5.14
2024-04-25T06:38:17.817Z,5.14
2024-04-25T06:39:19.463Z,5.11
2024-04-25T06:40:21.227Z,5.15
2024-04-25T06:41:22.957Z,5.1
2024-04-25T06:42:28.980Z,5.07
2024-04-25T06:43:35.205Z,5.07
2024-04-25T06:44:37.835Z,5.1
2024-04-25T06:45:35.071Z,5.11
2024-04-25T06:46:37.214Z,5.1
2024-04-25T06:47:43.833Z,5.08
2024-04-25T06:48:45.426Z,5.07
2024-04-25T06:49:48.174Z,5.05
2024-04-25T06:50:49.920Z,5.05
2024-04-25T06:52:15.539Z,5.05
2024-04-25T06:53:16.800Z,5.06
2024-04-25T06:54:18.615Z,5.08
2024-04-25T06:55:20.220Z,5.07
2024-04-25T06:56:22.006Z,5.05
2024-04-25T06:57:24.859Z,5.03
2024-04-25T06:58:25.394Z,5
2024-04-25T06:59:28.635Z,4.98
2024-04-25T07:00:33.710Z,5
2024-04-25T07:01:35.426Z,5
2024-04-25T07:02:51.398Z,5.04
2024-04-25T07:03:53.181Z,5.08
2024-04-25T07:04:54.689Z,5.09
2024-04-25T07:05:56.245Z,5.1
2024-04-25T07:06:56.729Z,5.11
2024-04-25T07:07:58.489Z,5.12
2024-04-25T07:09:01.590Z,5.18
2024-04-25T07:10:01.931Z,5.27
2024-04-25T07:11:05.041Z,5.29
2024-04-25T07:12:05.401Z,5.31
2024-04-25T07:13:07.129Z,5.42
2024-04-25T07:14:08.947Z,5.49
2024-04-25T07:15:10.581Z,5.68
2024-04-25T07:16:13.483Z,5.83
2024-04-25T07:17:14.103Z,5.99
2024-04-25T07:18:15.859Z,6.09
2024-04-25T07:19:17.552Z,6.16
2024-04-25T07:20:19.259Z,6.21
2024-04-25T07:21:20.973Z,6.26
2024-04-25T07:22:22.789Z,6.27
2024-04-25T07:23:24.619Z,6.28
2024-04-25T07:24:27.616Z,6.3
2024-04-25T07:25:28.040Z,6.32
2024-04-25T07:26:31.268Z,6.32
2024-04-25T07:27:54.890Z,6.3
2024-04-25T07:29:11.660Z,6.23
2024-04-25T07:30:16.146Z,6.21
2024-04-25T07:31:17.865Z,6.24
2024-04-25T07:32:20.832Z,6.28
2024-04-25T07:33:21.603Z,6.32
2024-04-25T07:34:24.287Z,6.33
2024-04-25T07:35:24.995Z,6.38
2024-04-25T07:36:26.675Z,6.43
2024-04-25T07:37:28.374Z,6.56
2024-04-25T07:38:34.705Z,6.63
2024-04-25T07:39:41.524Z,6.67
2024-04-25T07:40:43.843Z,6.67
2024-04-25T07:41:45.603Z,6.66
2024-04-25T07:42:47.282Z,6.68
2024-04-25T07:43:49.024Z,6.76
2024-04-25T07:44:50.920Z,6.75
2024-04-25T07:46:39.359Z,6.71
2024-04-25T07:47:41.157Z,6.66
2024-04-25T07:48:52.243Z,6.67
2024-04-25T07:49:52.610Z,6.65
2024-04-25T07:50:54.325Z,6.65
2024-04-25T07:51:57.522Z,6.65
2024-04-25T07:53:10.438Z,6.64
2024-04-25T07:54:14.935Z,6.6
2024-04-25T07:55:16.642Z,6.55
2024-04-25T07:56:18.497Z,6.54
2024-04-25T07:57:20.099Z,6.55
2024-04-25T07:58:21.842Z,6.58
2024-04-25T07:59:23.644Z,6.59
2024-04-25T08:00:30.652Z,6.59
2024-04-25T08:01:32.376Z,6.61
2024-04-25T08:02:44.786Z,6.6
2024-04-25T08:03:46.140Z,6.63
2024-04-25T08:04:47.894Z,6.63
2024-04-25T08:05:50.705Z,6.63
2024-04-25T08:07:01.568Z,6.64
2024-04-25T08:08:04.738Z,6.63
2024-04-25T08:09:05.053Z,6.6
2024-04-25T08:10:06.770Z,6.57
2024-04-25T08:11:08.723Z,6.52
2024-04-25T08:12:11.030Z,6.48
2024-04-25T08:13:11.958Z,6.43
2024-04-25T08:14:19.001Z,6.39
2024-04-25T08:15:20.626Z,6.38
2024-04-25T08:16:23.474Z,6.35
2024-04-25T08:17:43.075Z,6.35
2024-04-25T08:18:45.380Z,6.34
2024-04-25T08:19:46.523Z,6.34
2024-04-25T08:20:49.783Z,6.33
2024-04-25T08:21:54.286Z,6.35
2024-04-25T08:22:56.882Z,6.36
2024-04-25T08:23:58.832Z,6.39
2024-04-25T08:25:04.850Z,6.44
2024-04-25T08:26:07.346Z,6.46
2024-04-25T08:27:09.069Z,6.47
2024-04-25T08:28:10.744Z,6.48
2024-04-25T08:29:12.801Z,6.51
2024-04-25T08:30:14.189Z,6.52
2024-04-25T08:31:15.922Z,6.52
2024-04-25T08:32:17.699Z,6.52
2024-04-25T08:33:19.551Z,6.52
2024-04-25T08:34:21.095Z,6.52
2024-04-25T08:35:22.958Z,6.53
2024-04-25T08:36:28.832Z,6.57
2024-04-25T08:37:31.482Z,6.62
2024-04-25T08:38:38.367Z,6.65
2024-04-25T08:39:40.058Z,6.68
2024-04-25T08:40:57.308Z,6.75
2024-04-25T08:41:58.138Z,6.79
2024-04-25T08:43:00.810Z,6.8
2024-04-25T08:44:02.516Z,6.82
2024-04-25T08:45:04.243Z,6.82
2024-04-25T08:46:10.419Z,6.77
2024-04-25T08:47:12.889Z,6.75
2024-04-25T08:48:14.820Z,6.66
2024-04-25T08:49:16.316Z,6.61
2024-04-25T08:50:23.289Z,6.57
2024-04-25T08:51:24.957Z,6.54
2024-04-25T08:52:25.604Z,6.55
2024-04-25T08:53:28.443Z,6.52
2024-04-25T08:54:30.100Z,6.55
2024-04-25T08:55:33.252Z,6.53
2024-04-25T08:56:34.771Z,6.58
2024-04-25T08:57:35.284Z,6.62
2024-04-25T08:58:38.128Z,6.66
2024-04-25T08:59:52.911Z,6.71
2024-04-25T09:00:55.249Z,6.79
2024-04-25T09:01:57.651Z,6.84
2024-04-25T09:02:59.446Z,6.86
2024-04-25T09:04:01.133Z,6.92
2024-04-25T09:05:02.784Z,6.99
2024-04-25T09:06:04.514Z,7.06
2024-04-25T09:07:07.500Z,7.12
2024-04-25T09:08:08.064Z,7.18
2024-04-25T09:09:15.211Z,7.28
2024-04-25T09:10:16.567Z,7.4
2024-04-25T09:11:18.362Z,7.52
2024-04-25T09:12:20.071Z,7.6
2024-04-25T09:13:26.369Z,7.67
2024-04-25T09:14:28.683Z,7.72
2024-04-25T09:15:30.391Z,7.76
2024-04-25T09:16:35.061Z,7.87
2024-04-25T09:17:52.449Z,8
2024-04-25T09:18:58.523Z,8.08
2024-04-25T09:20:00.976Z,8.19
2024-04-25T09:21:02.734Z,8.32
2024-04-25T09:22:03.550Z,8.48
2024-04-25T09:23:06.903Z,8.6
2024-04-25T09:24:07.858Z,8.68
2024-04-25T09:25:20.161Z,8.86
2024-04-25T09:26:21.669Z,9.02
2024-04-25T09:27:23.303Z,9.11
2024-04-25T09:28:25.098Z,9.14
2024-04-25T09:29:26.877Z,9.15
2024-04-25T09:30:28.490Z,9.18
2024-04-25T09:31:31.661Z,9.22
2024-04-25T09:32:32.013Z,9.22
2024-04-25T09:33:35.210Z,9.22
2024-04-25T09:34:36.756Z,9.21
2024-04-25T09:35:38.411Z,9.19
2024-04-25T09:36:38.864Z,9.11
2024-04-25T09:37:50.968Z,9.05
2024-04-25T09:38:52.664Z,9
2024-04-25T09:40:01.034Z,8.94
2024-04-25T09:41:00.628Z,8.91
2024-04-25T09:42:02.964Z,8.89
2024-04-25T09:43:05.562Z,8.82
2024-04-25T09:44:06.430Z,8.8
2024-04-25T09:45:08.143Z,8.77
2024-04-25T09:46:11.259Z,8.79
2024-04-25T09:47:11.698Z,8.74
2024-04-25T09:48:13.356Z,8.73
2024-04-25T09:49:14.702Z,8.72
2024-04-25T09:50:18.542Z,8.68
2024-04-25T09:51:19.678Z,8.61
2024-04-25T09:52:21.956Z,8.54
2024-04-25T09:53:23.171Z,8.49
2024-04-25T09:54:23.772Z,8.49
2024-04-25T09:55:25.521Z,8.48
2024-04-25T09:56:27.298Z,8.42
2024-04-25T09:57:30.554Z,8.36
2024-04-25T09:58:30.693Z,8.3
2024-04-25T09:59:32.469Z,8.28
2024-04-25T10:00:34.325Z,8.22
2024-04-25T10:01:35.959Z,8.16
2024-04-25T10:02:37.671Z,8.11
2024-04-25T10:03:39.439Z,8.07
2024-04-25T10:04:41.182Z,7.99
2024-04-25T10:05:42.964Z,7.95
2024-04-25T10:06:44.623Z,7.92
2024-04-25T10:07:46.353Z,7.76
2024-04-25T10:08:55.031Z,7.61
2024-04-25T10:10:00.083Z,7.41
2024-04-25T10:11:04.062Z,7.19
2024-04-25T10:12:03.780Z,6.94
2024-04-25T10:13:06.492Z,6.71
2024-04-25T10:14:11.298Z,6.49
2024-04-25T10:15:16.304Z,6.22
2024-04-25T10:16:20.845Z,5.86
2024-04-25T10:17:23.608Z,5.63
2024-04-25T10:18:25.493Z,5.39
2024-04-25T10:19:25.908Z,5.26
2024-04-25T10:20:27.700Z,5.15
2024-04-25T10:21:29.403Z,5.06
2024-04-25T10:22:33.077Z,4.96
2024-04-25T10:23:32.847Z,4.87
2024-04-25T10:24:34.553Z,4.83
2024-04-25T10:25:36.298Z,4.77
2024-04-25T10:26:38.110Z,4.73
2024-04-25T10:27:39.766Z,4.7
2024-04-25T10:28:41.670Z,4.69
2024-04-25T10:29:43.328Z,4.68
2024-04-25T10:30:44.973Z,4.69
2024-04-25T10:31:47.879Z,4.73
2024-04-25T10:32:48.768Z,4.76
2024-04-25T10:33:50.321Z,4.8
2024-04-25T10:34:53.812Z,4.85
2024-04-25T10:35:58.819Z,4.92
2024-04-25T10:37:00.547Z,4.99
2024-04-25T10:38:02.316Z,5.07
2024-04-25T10:39:08.466Z,5.17
2024-04-25T10:40:05.678Z,5.3
2024-04-25T10:41:07.476Z,5.41
2024-04-25T10:42:09.185Z,5.52
2024-04-25T10:43:10.893Z,5.63
2024-04-25T10:44:12.626Z,5.74
2024-04-25T10:45:14.374Z,5.86
2024-04-25T10:46:16.114Z,5.99
2024-04-25T10:47:17.967Z,6.12
2024-04-25T10:48:19.791Z,6.25
2024-04-25T10:49:21.373Z,6.38
2024-04-25T10:50:23.070Z,6.49
2024-04-25T10:51:25.764Z,6.6
2024-04-25T10:52:25.897Z,6.69
2024-04-25T10:53:29.267Z,6.77
2024-04-25T10:54:30.006Z,6.87
2024-04-25T10:55:32.784Z,6.99
2024-04-25T10:56:33.461Z,7.13
2024-04-25T10:57:35.161Z,7.18
2024-04-25T10:58:36.901Z,7.24
2024-04-25T10:59:38.663Z,7.25
2024-04-25T11:00:40.386Z,7.24
2024-04-25T11:01:42.093Z,7.22
2024-04-25T11:02:45.218Z,7.26
2024-04-25T11:03:45.593Z,7.28
2024-04-25T11:04:47.286Z,7.27
2024-04-25T11:05:49.179Z,7.29
2024-04-25T11:06:50.868Z,7.34
2024-04-25T11:07:52.598Z,7.33
2024-04-25T11:08:54.960Z,7.31
2024-04-25T11:09:56.037Z,7.37
2024-04-25T11:10:57.762Z,7.47
2024-04-25T11:11:58.594Z,7.57
2024-04-25T11:13:01.187Z,7.67
2024-04-25T11:14:03.097Z,7.79
2024-04-25T11:15:30.669Z,7.99
2024-04-25T11:16:32.223Z,8.03
2024-04-25T11:17:39.949Z,8.01
2024-04-25T11:18:42.969Z,8.03
2024-04-25T11:19:49.980Z,8.08
2024-04-25T11:20:49.697Z,8.12
2024-04-25T11:21:52.631Z,8.12
2024-04-25T11:22:57.514Z,8.14
2024-04-25T11:24:05.274Z,8.17
2024-04-25T11:25:08.221Z,8.21
2024-04-25T11:26:08.441Z,8.28
2024-04-25T11:27:10.096Z,8.29
2024-04-25T11:28:11.822Z,8.23
2024-04-25T11:29:16.883Z,8.21
2024-04-25T11:30:19.915Z,8.21
2024-04-25T11:31:20.187Z,8.16
2024-04-25T11:32:20.880Z,8.12
2024-04-25T11:33:25.250Z,8.1
2024-04-25T11:34:29.596Z,8.08
2024-04-25T11:35:33.440Z,8.04
2024-04-25T11:36:35.209Z,8.01
2024-04-25T11:37:43.381Z,8
2024-04-25T11:38:46.516Z,8.06
2024-04-25T11:39:49.458Z,8.1
2024-04-25T11:40:51.216Z,8.07
2024-04-25T11:41:52.999Z,8.09
2024-04-25T11:43:12.738Z,8.05
2024-04-25T11:44:21.181Z,8.05
2024-04-25T11:45:25.139Z,8.02
2024-04-25T11:46:30.011Z,8.01
2024-04-25T11:47:32.505Z,8.04
2024-04-25T11:48:34.204Z,8.03
2024-04-25T11:49:37.096Z,8.04
2024-04-25T11:50:37.649Z,8.02
2024-04-25T11:51:39.331Z,8.02
2024-04-25T11:52:41.062Z,8.05
2024-04-25T11:53:42.914Z,8.18
2024-04-25T11:54:44.530Z,8.23
2024-04-25T11:55:46.238Z,8.29
2024-04-25T11:56:51.040Z,8.37
2024-04-25T11:57:52.580Z,8.43
2024-04-25T11:58:54.309Z,8.47
2024-04-25T12:00:06.374Z,8.52
2024-04-25T12:01:08.070Z,8.62
2024-04-25T12:02:09.818Z,8.7
2024-04-25T12:03:15.808Z,8.72
2024-04-25T12:04:18.415Z,8.81
2024-04-25T12:05:20.118Z,8.88
2024-04-25T12:06:21.827Z,8.94
2024-04-25T12:07:27.613Z,9.02
2024-04-25T12:08:28.212Z,9.11
2024-04-25T12:09:29.875Z,9.18
2024-04-25T12:10:33.120Z,9.26
2024-04-25T12:11:34.888Z,9.33
2024-04-25T12:12:35.090Z,9.39
2024-04-25T12:13:38.209Z,9.48
2024-04-25T12:14:40.633Z,9.59
2024-04-25T12:15:45.540Z,9.65
2024-04-25T12:16:47.174Z,9.79
2024-04-25T12:17:48.946Z,9.91
2024-04-25T12:18:50.566Z,10.01
2024-04-25T12:19:54.904Z,10.12
2024-04-25T12:21:09.502Z,10.14
2024-04-25T12:22:11.299Z,10.18
2024-04-25T12:23:13.267Z,10.23
2024-04-25T12:24:14.763Z,10.2
2024-04-25T12:25:18.459Z,10.19
2024-04-25T12:26:24.963Z,10.15
2024-04-25T12:27:25.107Z,10.06
2024-04-25T12:28:26.854Z,10.01
2024-04-25T12:29:34.710Z,9.86
2024-04-25T12:30:38.174Z,9.75
2024-04-25T12:31:42.326Z,9.71
2024-04-25T12:32:42.971Z,9.65
2024-04-25T12:33:43.272Z,9.59
2024-04-25T12:34:44.918Z,9.51
2024-04-25T12:35:46.747Z,9.42
2024-04-25T12:36:49.746Z,9.35
2024-04-25T12:37:54.665Z,9.31
2024-04-25T12:38:58.112Z,9.26
2024-04-25T12:39:58.693Z,9.22
2024-04-25T12:41:04.104Z,9.21
2024-04-25T12:42:07.607Z,9.2
2024-04-25T12:43:09.042Z,9.23
2024-04-25T12:44:10.798Z,9.25
2024-04-25T12:45:12.511Z,9.25
2024-04-25T12:46:14.225Z,9.23
2024-04-25T12:47:17.995Z,9.23
2024-04-25T12:48:33.434Z,9.24
2024-04-25T12:49:36.078Z,9.25
2024-04-25T12:50:36.632Z,9.29
2024-04-25T12:51:38.340Z,9.26
2024-04-25T12:52:40.438Z,9.26
2024-04-25T12:53:41.881Z,9.23
2024-04-25T12:54:44.538Z,9.22
2024-04-25T12:55:48.242Z,9.21
2024-04-25T12:56:52.092Z,9.26
2024-04-25T12:57:53.782Z,9.27
2024-04-25T12:58:55.514Z,9.25
2024-04-25T12:59:57.281Z,9.25
2024-04-25T13:00:59.020Z,9.25
2024-04-25T13:02:01.978Z,9.26
2024-04-25T13:03:03.821Z,9.25
2024-04-25T13:04:05.263Z,9.23
2024-04-25T13:05:05.956Z,9.24
2024-04-25T13:06:07.664Z,9.26
2024-04-25T13:07:09.474Z,9.26
2024-04-25T13:08:11.123Z,9.27
2024-04-25T13:09:12.843Z,9.3
2024-04-25T13:10:14.690Z,9.31
2024-04-25T13:11:16.615Z,9.35
2024-04-25T13:12:20.732Z,9.38
2024-04-25T13:13:25.032Z,9.44
2024-04-25T13:14:26.767Z,9.47
2024-04-25T13:15:30.237Z,9.51
2024-04-25T13:16:31.432Z,9.57
2024-04-25T13:17:32.104Z,9.61
2024-04-25T13:18:33.789Z,9.64
2024-04-25T13:19:46.071Z,9.67
2024-04-25T13:20:48.912Z,9.73
2024-04-25T13:21:59.901Z,9.76
2024-04-25T13:23:11.795Z,9.77
2024-04-25T13:24:13.237Z,9.78
2024-04-25T13:25:14.958Z,9.79
2024-04-25T13:26:18.267Z,9.78
2024-04-25T13:27:19.859Z,9.74
2024-04-25T13:28:19.988Z,9.7
2024-04-25T13:29:22.032Z,9.65
2024-04-25T13:30:23.845Z,9.65
2024-04-25T13:31:25.388Z,9.64
2024-04-25T13:32:27.405Z,9.64
2024-04-25T13:33:28.978Z,9.65
2024-04-25T13:34:30.595Z,9.66
2024-04-25T13:35:43.154Z,9.66
2024-04-25T13:36:44.596Z,9.63
2024-04-25T13:37:47.187Z,9.64
2024-04-25T13:38:57.357Z,9.65
2024-04-25T13:39:57.765Z,9.64
2024-04-25T13:40:59.406Z,9.6
2024-04-25T13:42:01.326Z,9.61
2024-04-25T13:43:07.216Z,9.6
2024-04-25T13:44:09.997Z,9.57
2024-04-25T13:45:11.764Z,9.52
2024-04-25T13:46:13.508Z,9.52
2024-04-25T13:47:14.964Z,9.5
2024-04-25T13:48:18.061Z,9.49
2024-04-25T13:49:18.449Z,9.49
2024-04-25T13:50:21.272Z,9.49
2024-04-25T13:51:23.229Z,9.51
2024-04-25T13:52:23.592Z,9.5
2024-04-25T13:53:25.380Z,9.52
2024-04-25T13:54:27.024Z,9.54
2024-04-25T13:55:30.045Z,9.58
2024-04-25T13:56:30.623Z,9.59
2024-04-25T13:57:42.794Z,9.61
2024-04-25T13:58:49.692Z,9.62
2024-04-25T13:59:51.261Z,9.62
2024-04-25T14:00:57.794Z,9.63
2024-04-25T14:01:59.488Z,9.66
2024-04-25T14:03:01.159Z,9.7
2024-04-25T14:04:02.925Z,9.73
2024-04-25T14:05:15.344Z,9.75